sensor_id;sensor_type;location;lat;lon;timestamp;P1;durP1;ratioP1;P2;durP2;ratioP2
72684;SDS011;61365;52.162;4.500;2023-02-24T00:01:47;12.63;;;2.28;;
72684;SDS011;61365;52.162;4.500;2023-02-24T00:04:17;12.43;;;1.95;;
72684;SDS011;61365;52.162;4.500;2023-02-24T00:06:45;7.85;;;1.33;;
72684;SDS011;61365;52.162;4.500;2023-02-24T00:09:13;13.07;;;2.25;;
72684;SDS011;61365;52.162;4.500;2023-02-24T00:11:51;11.55;;;1.60;;
72684;SDS011;61365;52.162;4.500;2023-02-24T00:14:22;12.57;;;2.13;;
72684;SDS011;61365;52.162;4.500;2023-02-24T00:16:51;14.52;;;2.17;;
72684;SDS011;61365;52.162;4.500;2023-02-24T00:19:19;15.65;;;1.52;;
72684;SDS011;61365;52.162;4.500;2023-02-24T00:21:48;9.93;;;1.92;;
72684;SDS011;61365;52.162;4.500;2023-02-24T00:24:19;9.95;;;2.05;;
72684;SDS011;61365;52.162;4.500;2023-02-24T00:26:57;11.07;;;1.70;;
72684;SDS011;61365;52.162;4.500;2023-02-24T00:29:26;10.95;;;1.80;;
72684;SDS011;61365;52.162;4.500;2023-02-24T00:31:57;8.43;;;1.60;;
72684;SDS011;61365;52.162;4.500;2023-02-24T00:34:25;7.28;;;1.40;;
72684;SDS011;61365;52.162;4.500;2023-02-24T00:36:53;15.63;;;1.88;;
72684;SDS011;61365;52.162;4.500;2023-02-24T00:39:20;12.02;;;1.52;;
72684;SDS011;61365;52.162;4.500;2023-02-24T00:41:55;16.45;;;1.58;;
72684;SDS011;61365;52.162;4.500;2023-02-24T00:44:29;13.02;;;1.52;;
72684;SDS011;61365;52.162;4.500;2023-02-24T00:47:03;8.43;;;1.38;;
72684;SDS011;61365;52.162;4.500;2023-02-24T00:49:31;12.25;;;1.70;;
72684;SDS011;61365;52.162;4.500;2023-02-24T00:52:00;7.63;;;1.63;;
72684;SDS011;61365;52.162;4.500;2023-02-24T00:54:34;8.90;;;1.90;;
72684;SDS011;61365;52.162;4.500;2023-02-24T00:57:01;13.30;;;1.45;;
72684;SDS011;61365;52.162;4.500;2023-02-24T00:59:29;8.98;;;1.60;;
72684;SDS011;61365;52.162;4.500;2023-02-24T01:01:55;12.52;;;1.60;;
72684;SDS011;61365;52.162;4.500;2023-02-24T01:04:21;15.35;;;2.03;;
72684;SDS011;61365;52.162;4.500;2023-02-24T01:06:49;10.35;;;1.67;;
72684;SDS011;61365;52.162;4.500;2023-02-24T01:09:25;13.13;;;2.08;;
72684;SDS011;61365;52.162;4.500;2023-02-24T01:11:54;10.98;;;1.90;;
72684;SDS011;61365;52.162;4.500;2023-02-24T01:14:47;13.13;;;1.88;;
72684;SDS011;61365;52.162;4.500;2023-02-24T01:17:16;16.38;;;2.55;;
72684;SDS011;61365;52.162;4.500;2023-02-24T01:19:45;9.43;;;1.73;;
72684;SDS011;61365;52.162;4.500;2023-02-24T01:22:15;7.65;;;1.92;;
72684;SDS011;61365;52.162;4.500;2023-02-24T01:24:45;15.63;;;2.03;;
72684;SDS011;61365;52.162;4.500;2023-02-24T01:27:13;7.15;;;1.27;;
72684;SDS011;61365;52.162;4.500;2023-02-24T01:29:43;8.32;;;1.25;;
72684;SDS011;61365;52.162;4.500;2023-02-24T01:32:13;8.05;;;2.20;;
72684;SDS011;61365;52.162;4.500;2023-02-24T01:34:42;10.60;;;1.40;;
72684;SDS011;61365;52.162;4.500;2023-02-24T01:37:08;8.02;;;1.25;;
72684;SDS011;61365;52.162;4.500;2023-02-24T01:39:35;11.32;;;1.20;;
72684;SDS011;61365;52.162;4.500;2023-02-24T01:42:02;10.95;;;1.73;;
72684;SDS011;61365;52.162;4.500;2023-02-24T01:46:58;14.00;;;1.95;;
72684;SDS011;61365;52.162;4.500;2023-02-24T01:49:32;10.50;;;1.60;;
72684;SDS011;61365;52.162;4.500;2023-02-24T01:52:14;9.90;;;1.83;;
72684;SDS011;61365;52.162;4.500;2023-02-24T01:57:44;13.15;;;1.85;;
72684;SDS011;61365;52.162;4.500;2023-02-24T02:00:12;4.90;;;1.20;;
72684;SDS011;61365;52.162;4.500;2023-02-24T02:02:59;5.85;;;1.35;;
72684;SDS011;61365;52.162;4.500;2023-02-24T02:05:34;8.65;;;1.30;;
72684;SDS011;61365;52.162;4.500;2023-02-24T02:08:05;8.25;;;1.48;;
72684;SDS011;61365;52.162;4.500;2023-02-24T02:10:35;8.40;;;1.40;;
72684;SDS011;61365;52.162;4.500;2023-02-24T02:13:04;4.97;;;1.23;;
72684;SDS011;61365;52.162;4.500;2023-02-24T02:15:31;9.55;;;1.33;;
72684;SDS011;61365;52.162;4.500;2023-02-24T02:18:21;6.40;;;1.77;;
72684;SDS011;61365;52.162;4.500;2023-02-24T02:27:16;5.45;;;1.15;;
72684;SDS011;61365;52.162;4.500;2023-02-24T02:30:06;9.82;;;1.50;;
72684;SDS011;61365;52.162;4.500;2023-02-24T02:36:02;6.75;;;1.10;;
72684;SDS011;61365;52.162;4.500;2023-02-24T02:38:54;9.23;;;1.67;;
72684;SDS011;61365;52.162;4.500;2023-02-24T02:44:21;10.20;;;1.20;;
72684;SDS011;61365;52.162;4.500;2023-02-24T02:47:09;15.10;;;1.73;;
72684;SDS011;61365;52.162;4.500;2023-02-24T02:50:08;10.20;;;1.20;;
72684;SDS011;61365;52.162;4.500;2023-02-24T02:52:56;6.38;;;1.38;;
72684;SDS011;61365;52.162;4.500;2023-02-24T02:55:39;9.10;;;1.42;;
72684;SDS011;61365;52.162;4.500;2023-02-24T02:58:17;6.47;;;1.15;;
72684;SDS011;61365;52.162;4.500;2023-02-24T03:00:52;8.57;;;1.38;;
72684;SDS011;61365;52.162;4.500;2023-02-24T03:03:30;6.05;;;1.38;;
72684;SDS011;61365;52.162;4.500;2023-02-24T03:06:05;5.25;;;1.00;;
72684;SDS011;61365;52.162;4.500;2023-02-24T03:11:37;2.58;;;1.25;;
72684;SDS011;61365;52.162;4.500;2023-02-24T03:14:06;9.48;;;1.55;;
72684;SDS011;61365;52.162;4.500;2023-02-24T03:16:39;6.85;;;1.33;;
72684;SDS011;61365;52.162;4.500;2023-02-24T03:19:14;6.72;;;1.00;;
72684;SDS011;61365;52.162;4.500;2023-02-24T03:22:03;6.45;;;1.00;;
72684;SDS011;61365;52.162;4.500;2023-02-24T03:24:37;6.85;;;1.05;;
72684;SDS011;61365;52.162;4.500;2023-02-24T03:27:10;7.60;;;1.02;;
72684;SDS011;61365;52.162;4.500;2023-02-24T03:29:55;6.22;;;1.00;;
72684;SDS011;61365;52.162;4.500;2023-02-24T03:32:35;8.25;;;1.73;;
72684;SDS011;61365;52.162;4.500;2023-02-24T03:35:16;6.25;;;0.90;;
72684;SDS011;61365;52.162;4.500;2023-02-24T03:37:52;10.00;;;1.40;;
72684;SDS011;61365;52.162;4.500;2023-02-24T03:40:24;8.60;;;1.10;;
72684;SDS011;61365;52.162;4.500;2023-02-24T03:42:56;5.65;;;1.35;;
72684;SDS011;61365;52.162;4.500;2023-02-24T03:45:30;6.45;;;1.23;;
72684;SDS011;61365;52.162;4.500;2023-02-24T03:48:03;7.70;;;1.13;;
72684;SDS011;61365;52.162;4.500;2023-02-24T03:50:33;7.38;;;0.82;;
72684;SDS011;61365;52.162;4.500;2023-02-24T03:53:07;10.23;;;1.30;;
72684;SDS011;61365;52.162;4.500;2023-02-24T03:58:53;7.47;;;1.00;;
72684;SDS011;61365;52.162;4.500;2023-02-24T04:02:25;8.57;;;1.40;;
72684;SDS011;61365;52.162;4.500;2023-02-24T04:05:07;8.25;;;1.77;;
72684;SDS011;61365;52.162;4.500;2023-02-24T04:10:26;10.20;;;1.40;;
72684;SDS011;61365;52.162;4.500;2023-02-24T04:16:20;14.05;;;1.63;;
72684;SDS011;61365;52.162;4.500;2023-02-24T04:21:27;8.07;;;2.47;;
72684;SDS011;61365;52.162;4.500;2023-02-24T04:23:58;9.88;;;2.10;;
72684;SDS011;61365;52.162;4.500;2023-02-24T04:26:33;10.45;;;1.88;;
72684;SDS011;61365;52.162;4.500;2023-02-24T04:29:05;10.40;;;2.40;;
72684;SDS011;61365;52.162;4.500;2023-02-24T04:31:34;12.05;;;2.28;;
72684;SDS011;61365;52.162;4.500;2023-02-24T04:34:03;17.35;;;2.50;;
72684;SDS011;61365;52.162;4.500;2023-02-24T04:36:34;10.73;;;2.00;;
72684;SDS011;61365;52.162;4.500;2023-02-24T04:39:00;10.32;;;2.13;;
72684;SDS011;61365;52.162;4.500;2023-02-24T04:41:26;8.60;;;2.30;;
72684;SDS011;61365;52.162;4.500;2023-02-24T04:43:53;14.65;;;2.97;;
72684;SDS011;61365;52.162;4.500;2023-02-24T04:46:19;11.45;;;2.15;;
72684;SDS011;61365;52.162;4.500;2023-02-24T04:48:45;12.57;;;2.53;;
72684;SDS011;61365;52.162;4.500;2023-02-24T04:51:12;12.48;;;2.90;;
72684;SDS011;61365;52.162;4.500;2023-02-24T04:53:38;11.57;;;2.50;;
72684;SDS011;61365;52.162;4.500;2023-02-24T04:56:05;15.57;;;2.67;;
72684;SDS011;61365;52.162;4.500;2023-02-24T04:58:34;10.45;;;2.38;;
72684;SDS011;61365;52.162;4.500;2023-02-24T05:01:09;15.98;;;2.60;;
72684;SDS011;61365;52.162;4.500;2023-02-24T05:03:36;6.75;;;1.85;;
72684;SDS011;61365;52.162;4.500;2023-02-24T05:06:07;8.98;;;2.42;;
72684;SDS011;61365;52.162;4.500;2023-02-24T05:08:40;11.60;;;2.60;;
72684;SDS011;61365;52.162;4.500;2023-02-24T05:11:11;11.60;;;2.40;;
72684;SDS011;61365;52.162;4.500;2023-02-24T05:13:41;9.70;;;2.13;;
72684;SDS011;61365;52.162;4.500;2023-02-24T05:16:13;12.25;;;3.17;;
72684;SDS011;61365;52.162;4.500;2023-02-24T05:18:42;11.95;;;2.97;;
72684;SDS011;61365;52.162;4.500;2023-02-24T05:21:13;8.80;;;2.40;;
72684;SDS011;61365;52.162;4.500;2023-02-24T05:24:00;9.73;;;2.42;;
72684;SDS011;61365;52.162;4.500;2023-02-24T05:26:37;13.85;;;2.75;;
72684;SDS011;61365;52.162;4.500;2023-02-24T05:29:06;12.65;;;2.47;;
72684;SDS011;61365;52.162;4.500;2023-02-24T05:31:33;16.73;;;2.92;;
72684;SDS011;61365;52.162;4.500;2023-02-24T05:34:01;10.93;;;2.20;;
72684;SDS011;61365;52.162;4.500;2023-02-24T05:36:32;15.57;;;2.92;;
72684;SDS011;61365;52.162;4.500;2023-02-24T05:39:02;12.60;;;2.42;;
72684;SDS011;61365;52.162;4.500;2023-02-24T05:41:33;11.23;;;2.20;;
72684;SDS011;61365;52.162;4.500;2023-02-24T05:44:07;9.40;;;2.17;;
72684;SDS011;61365;52.162;4.500;2023-02-24T05:46:39;13.00;;;2.17;;
72684;SDS011;61365;52.162;4.500;2023-02-24T05:49:16;11.07;;;2.88;;
72684;SDS011;61365;52.162;4.500;2023-02-24T05:51:48;15.90;;;2.90;;
72684;SDS011;61365;52.162;4.500;2023-02-24T05:54:21;9.45;;;1.98;;
72684;SDS011;61365;52.162;4.500;2023-02-24T05:56:57;11.10;;;2.13;;
72684;SDS011;61365;52.162;4.500;2023-02-24T05:59:34;12.95;;;2.13;;
72684;SDS011;61365;52.162;4.500;2023-02-24T06:02:02;15.77;;;2.38;;
72684;SDS011;61365;52.162;4.500;2023-02-24T06:07:11;16.92;;;1.83;;
72684;SDS011;61365;52.162;4.500;2023-02-24T06:09:45;11.80;;;2.25;;
72684;SDS011;61365;52.162;4.500;2023-02-24T06:12:15;12.35;;;2.08;;
72684;SDS011;61365;52.162;4.500;2023-02-24T06:14:43;10.50;;;2.20;;
72684;SDS011;61365;52.162;4.500;2023-02-24T06:17:10;10.95;;;2.10;;
72684;SDS011;61365;52.162;4.500;2023-02-24T06:19:39;13.40;;;2.33;;
72684;SDS011;61365;52.162;4.500;2023-02-24T06:22:06;8.32;;;1.83;;
72684;SDS011;61365;52.162;4.500;2023-02-24T06:24:36;9.75;;;2.28;;
72684;SDS011;61365;52.162;4.500;2023-02-24T06:27:04;11.90;;;2.05;;
72684;SDS011;61365;52.162;4.500;2023-02-24T06:29:38;10.50;;;2.35;;
72684;SDS011;61365;52.162;4.500;2023-02-24T06:32:04;9.68;;;1.92;;
72684;SDS011;61365;52.162;4.500;2023-02-24T06:34:33;7.90;;;1.77;;
72684;SDS011;61365;52.162;4.500;2023-02-24T06:37:02;11.52;;;2.10;;
72684;SDS011;61365;52.162;4.500;2023-02-24T06:39:30;10.63;;;2.00;;
72684;SDS011;61365;52.162;4.500;2023-02-24T06:41:57;16.08;;;2.33;;
72684;SDS011;61365;52.162;4.500;2023-02-24T06:44:29;12.98;;;2.03;;
72684;SDS011;61365;52.162;4.500;2023-02-24T06:47:00;16.27;;;2.33;;
72684;SDS011;61365;52.162;4.500;2023-02-24T06:49:28;11.27;;;2.40;;
72684;SDS011;61365;52.162;4.500;2023-02-24T06:51:54;15.60;;;2.55;;
72684;SDS011;61365;52.162;4.500;2023-02-24T06:54:23;6.55;;;1.80;;
72684;SDS011;61365;52.162;4.500;2023-02-24T06:56:53;12.95;;;2.20;;
72684;SDS011;61365;52.162;4.500;2023-02-24T06:59:20;11.43;;;2.47;;
72684;SDS011;61365;52.162;4.500;2023-02-24T07:01:47;13.77;;;2.10;;
72684;SDS011;61365;52.162;4.500;2023-02-24T07:04:14;19.65;;;2.65;;
72684;SDS011;61365;52.162;4.500;2023-02-24T07:06:49;12.70;;;2.95;;
72684;SDS011;61365;52.162;4.500;2023-02-24T07:09:23;15.90;;;2.97;;
72684;SDS011;61365;52.162;4.500;2023-02-24T07:11:52;14.93;;;2.47;;
72684;SDS011;61365;52.162;4.500;2023-02-24T07:14:22;18.25;;;2.83;;
72684;SDS011;61365;52.162;4.500;2023-02-24T07:16:52;15.32;;;2.50;;
72684;SDS011;61365;52.162;4.500;2023-02-24T07:19:24;13.20;;;2.30;;
72684;SDS011;61365;52.162;4.500;2023-02-24T07:21:55;16.17;;;2.70;;
72684;SDS011;61365;52.162;4.500;2023-02-24T07:24:25;13.63;;;2.58;;
72684;SDS011;61365;52.162;4.500;2023-02-24T07:27:10;18.75;;;2.90;;
72684;SDS011;61365;52.162;4.500;2023-02-24T07:29:46;11.23;;;2.53;;
72684;SDS011;61365;52.162;4.500;2023-02-24T07:32:14;16.70;;;2.83;;
72684;SDS011;61365;52.162;4.500;2023-02-24T07:34:42;10.80;;;2.30;;
72684;SDS011;61365;52.162;4.500;2023-02-24T07:37:09;13.40;;;2.60;;
72684;SDS011;61365;52.162;4.500;2023-02-24T07:39:37;15.00;;;2.60;;
72684;SDS011;61365;52.162;4.500;2023-02-24T07:42:08;11.38;;;2.75;;
72684;SDS011;61365;52.162;4.500;2023-02-24T07:44:39;14.98;;;3.15;;
72684;SDS011;61365;52.162;4.500;2023-02-24T07:47:09;8.60;;;1.77;;
72684;SDS011;61365;52.162;4.500;2023-02-24T07:49:35;11.88;;;2.47;;
72684;SDS011;61365;52.162;4.500;2023-02-24T07:52:05;18.27;;;2.80;;
72684;SDS011;61365;52.162;4.500;2023-02-24T07:54:32;11.88;;;2.65;;
72684;SDS011;61365;52.162;4.500;2023-02-24T07:56:59;10.68;;;2.03;;
72684;SDS011;61365;52.162;4.500;2023-02-24T07:59:27;15.82;;;2.33;;
72684;SDS011;61365;52.162;4.500;2023-02-24T08:01:57;13.10;;;1.88;;
72684;SDS011;61365;52.162;4.500;2023-02-24T08:04:26;9.73;;;2.42;;
72684;SDS011;61365;52.162;4.500;2023-02-24T08:06:57;8.73;;;2.30;;
72684;SDS011;61365;52.162;4.500;2023-02-24T08:09:28;15.45;;;2.75;;
72684;SDS011;61365;52.162;4.500;2023-02-24T08:14:43;19.25;;;2.80;;
72684;SDS011;61365;52.162;4.500;2023-02-24T08:17:19;18.30;;;2.92;;
72684;SDS011;61365;52.162;4.500;2023-02-24T08:19:51;22.25;;;2.95;;
72684;SDS011;61365;52.162;4.500;2023-02-24T08:22:40;16.52;;;2.85;;
72684;SDS011;61365;52.162;4.500;2023-02-24T08:25:11;18.10;;;3.53;;
72684;SDS011;61365;52.162;4.500;2023-02-24T08:27:44;17.40;;;2.57;;
72684;SDS011;61365;52.162;4.500;2023-02-24T08:30:21;16.58;;;2.95;;
72684;SDS011;61365;52.162;4.500;2023-02-24T08:32:55;16.83;;;2.70;;
72684;SDS011;61365;52.162;4.500;2023-02-24T08:35:23;16.90;;;2.88;;
72684;SDS011;61365;52.162;4.500;2023-02-24T08:38:04;20.30;;;3.22;;
72684;SDS011;61365;52.162;4.500;2023-02-24T08:40:41;15.45;;;2.40;;
72684;SDS011;61365;52.162;4.500;2023-02-24T08:43:21;20.80;;;2.85;;
72684;SDS011;61365;52.162;4.500;2023-02-24T08:45:59;15.38;;;3.10;;
72684;SDS011;61365;52.162;4.500;2023-02-24T08:48:47;18.13;;;3.30;;
72684;SDS011;61365;52.162;4.500;2023-02-24T08:51:27;20.08;;;2.42;;
72684;SDS011;61365;52.162;4.500;2023-02-24T08:54:00;17.10;;;2.80;;
72684;SDS011;61365;52.162;4.500;2023-02-24T08:56:36;17.65;;;3.42;;
72684;SDS011;61365;52.162;4.500;2023-02-24T08:59:09;14.77;;;2.47;;
72684;SDS011;61365;52.162;4.500;2023-02-24T09:01:54;23.90;;;4.45;;
72684;SDS011;61365;52.162;4.500;2023-02-24T09:04:45;18.50;;;2.70;;
72684;SDS011;61365;52.162;4.500;2023-02-24T09:07:17;18.37;;;3.53;;
72684;SDS011;61365;52.162;4.500;2023-02-24T09:09:48;15.02;;;2.83;;
72684;SDS011;61365;52.162;4.500;2023-02-24T09:12:15;15.85;;;3.13;;
72684;SDS011;61365;52.162;4.500;2023-02-24T09:14:56;19.90;;;2.75;;
72684;SDS011;61365;52.162;4.500;2023-02-24T09:17:27;12.90;;;2.53;;
72684;SDS011;61365;52.162;4.500;2023-02-24T09:20:06;20.63;;;3.40;;
72684;SDS011;61365;52.162;4.500;2023-02-24T09:23:01;16.05;;;3.65;;
72684;SDS011;61365;52.162;4.500;2023-02-24T09:25:30;17.38;;;3.72;;
72684;SDS011;61365;52.162;4.500;2023-02-24T09:28:12;25.05;;;4.50;;
72684;SDS011;61365;52.162;4.500;2023-02-24T09:30:51;20.80;;;4.22;;
72684;SDS011;61365;52.162;4.500;2023-02-24T09:33:30;18.33;;;4.88;;
72684;SDS011;61365;52.162;4.500;2023-02-24T09:36:07;21.02;;;5.80;;
72684;SDS011;61365;52.162;4.500;2023-02-24T09:38:56;21.05;;;4.85;;
72684;SDS011;61365;52.162;4.500;2023-02-24T09:44:42;22.50;;;5.60;;
72684;SDS011;61365;52.162;4.500;2023-02-24T09:52:58;25.00;;;7.70;;
72684;SDS011;61365;52.162;4.500;2023-02-24T09:58:43;25.50;;;7.53;;
72684;SDS011;61365;52.162;4.500;2023-02-24T10:06:41;23.95;;;9.68;;
72684;SDS011;61365;52.162;4.500;2023-02-24T10:09:22;26.67;;;10.13;;
72684;SDS011;61365;52.162;4.500;2023-02-24T10:17:48;19.95;;;8.65;;
72684;SDS011;61365;52.162;4.500;2023-02-24T10:20:23;21.85;;;9.60;;
72684;SDS011;61365;52.162;4.500;2023-02-24T10:23:27;19.90;;;9.50;;
72684;SDS011;61365;52.162;4.500;2023-02-24T10:26:12;19.10;;;9.18;;
72684;SDS011;61365;52.162;4.500;2023-02-24T10:31:37;19.13;;;8.50;;
72684;SDS011;61365;52.162;4.500;2023-02-24T10:34:14;16.95;;;9.18;;
72684;SDS011;61365;52.162;4.500;2023-02-24T10:36:51;19.95;;;8.18;;
72684;SDS011;61365;52.162;4.500;2023-02-24T10:39:19;21.05;;;9.00;;
72684;SDS011;61365;52.162;4.500;2023-02-24T10:41:55;18.15;;;8.77;;
72684;SDS011;61365;52.162;4.500;2023-02-24T10:44:44;17.75;;;9.00;;
72684;SDS011;61365;52.162;4.500;2023-02-24T10:47:19;18.60;;;8.45;;
72684;SDS011;61365;52.162;4.500;2023-02-24T10:49:56;17.63;;;9.70;;
72684;SDS011;61365;52.162;4.500;2023-02-24T10:52:33;12.48;;;7.20;;
72684;SDS011;61365;52.162;4.500;2023-02-24T11:01:13;15.65;;;7.80;;
72684;SDS011;61365;52.162;4.500;2023-02-24T11:04:15;18.73;;;9.65;;
72684;SDS011;61365;52.162;4.500;2023-02-24T11:07:12;17.40;;;8.23;;
72684;SDS011;61365;52.162;4.500;2023-02-24T11:10:00;19.45;;;6.82;;
72684;SDS011;61365;52.162;4.500;2023-02-24T11:12:51;23.05;;;7.80;;
72684;SDS011;61365;52.162;4.500;2023-02-24T11:15:52;31.42;;;8.77;;
72684;SDS011;61365;52.162;4.500;2023-02-24T11:18:38;24.45;;;7.00;;
72684;SDS011;61365;52.162;4.500;2023-02-24T11:21:17;20.60;;;6.22;;
72684;SDS011;61365;52.162;4.500;2023-02-24T11:23:48;14.68;;;5.43;;
72684;SDS011;61365;52.162;4.500;2023-02-24T11:26:25;23.42;;;5.55;;
72684;SDS011;61365;52.162;4.500;2023-02-24T11:32:08;17.98;;;5.07;;
72684;SDS011;61365;52.162;4.500;2023-02-24T11:40:25;17.88;;;3.55;;
72684;SDS011;61365;52.162;4.500;2023-02-24T11:43:03;23.27;;;3.85;;
72684;SDS011;61365;52.162;4.500;2023-02-24T11:45:44;19.33;;;3.88;;
72684;SDS011;61365;52.162;4.500;2023-02-24T11:48:41;21.80;;;4.13;;
72684;SDS011;61365;52.162;4.500;2023-02-24T11:51:18;24.25;;;3.67;;
72684;SDS011;61365;52.162;4.500;2023-02-24T11:53:51;31.65;;;3.88;;
72684;SDS011;61365;52.162;4.500;2023-02-24T11:56:37;25.83;;;4.32;;
72684;SDS011;61365;52.162;4.500;2023-02-24T11:59:11;34.47;;;4.22;;
72684;SDS011;61365;52.162;4.500;2023-02-24T12:02:32;28.50;;;4.82;;
72684;SDS011;61365;52.162;4.500;2023-02-24T12:05:12;20.70;;;3.50;;
72684;SDS011;61365;52.162;4.500;2023-02-24T12:07:50;27.88;;;4.43;;
72684;SDS011;61365;52.162;4.500;2023-02-24T12:10:28;25.08;;;3.63;;
72684;SDS011;61365;52.162;4.500;2023-02-24T12:13:01;31.25;;;4.68;;
72684;SDS011;61365;52.162;4.500;2023-02-24T12:15:52;27.05;;;4.43;;
72684;SDS011;61365;52.162;4.500;2023-02-24T12:18:31;21.08;;;4.18;;
72684;SDS011;61365;52.162;4.500;2023-02-24T12:21:20;26.30;;;4.28;;
72684;SDS011;61365;52.162;4.500;2023-02-24T12:23:56;21.52;;;4.05;;
72684;SDS011;61365;52.162;4.500;2023-02-24T12:26:24;27.55;;;4.00;;
72684;SDS011;61365;52.162;4.500;2023-02-24T12:34:53;32.17;;;4.68;;
72684;SDS011;61365;52.162;4.500;2023-02-24T12:37:45;28.98;;;4.38;;
72684;SDS011;61365;52.162;4.500;2023-02-24T12:40:38;34.13;;;4.00;;
72684;SDS011;61365;52.162;4.500;2023-02-24T12:46:22;24.25;;;4.05;;
72684;SDS011;61365;52.162;4.500;2023-02-24T12:54:50;38.97;;;5.55;;
72684;SDS011;61365;52.162;4.500;2023-02-24T13:03:48;25.58;;;4.70;;
72684;SDS011;61365;52.162;4.500;2023-02-24T13:06:31;29.67;;;4.65;;
72684;SDS011;61365;52.162;4.500;2023-02-24T13:12:39;26.83;;;4.70;;
72684;SDS011;61365;52.162;4.500;2023-02-24T13:15:24;27.40;;;4.40;;
72684;SDS011;61365;52.162;4.500;2023-02-24T13:17:56;42.42;;;5.45;;
72684;SDS011;61365;52.162;4.500;2023-02-24T13:20:31;26.00;;;4.40;;
72684;SDS011;61365;52.162;4.500;2023-02-24T13:23:17;26.50;;;4.20;;
72684;SDS011;61365;52.162;4.500;2023-02-24T13:25:50;29.77;;;4.18;;
72684;SDS011;61365;52.162;4.500;2023-02-24T13:28:31;29.35;;;3.65;;
72684;SDS011;61365;52.162;4.500;2023-02-24T13:31:02;30.25;;;4.18;;
72684;SDS011;61365;52.162;4.500;2023-02-24T13:33:37;21.88;;;3.92;;
72684;SDS011;61365;52.162;4.500;2023-02-24T13:38:44;25.70;;;4.47;;
72684;SDS011;61365;52.162;4.500;2023-02-24T13:43:59;32.67;;;4.63;;
72684;SDS011;61365;52.162;4.500;2023-02-24T13:46:29;24.75;;;4.18;;
72684;SDS011;61365;52.162;4.500;2023-02-24T13:49:21;21.05;;;3.67;;
72684;SDS011;61365;52.162;4.500;2023-02-24T14:01:07;20.52;;;3.20;;
72684;SDS011;61365;52.162;4.500;2023-02-24T14:03:41;17.70;;;3.20;;
72684;SDS011;61365;52.162;4.500;2023-02-24T14:06:30;26.08;;;3.83;;
72684;SDS011;61365;52.162;4.500;2023-02-24T14:08:58;19.38;;;3.53;;
72684;SDS011;61365;52.162;4.500;2023-02-24T14:11:32;25.25;;;3.55;;
72684;SDS011;61365;52.162;4.500;2023-02-24T14:14:01;25.58;;;4.13;;
72684;SDS011;61365;52.162;4.500;2023-02-24T14:16:31;30.23;;;3.70;;
72684;SDS011;61365;52.162;4.500;2023-02-24T14:19:05;16.77;;;2.75;;
72684;SDS011;61365;52.162;4.500;2023-02-24T14:21:53;15.90;;;2.53;;
72684;SDS011;61365;52.162;4.500;2023-02-24T14:26:57;16.00;;;1.95;;
72684;SDS011;61365;52.162;4.500;2023-02-24T14:29:27;13.90;;;2.63;;
72684;SDS011;61365;52.162;4.500;2023-02-24T14:31:59;14.45;;;1.95;;
72684;SDS011;61365;52.162;4.500;2023-02-24T14:34:27;11.82;;;2.22;;
72684;SDS011;61365;52.162;4.500;2023-02-24T14:36:57;17.88;;;2.10;;
72684;SDS011;61365;52.162;4.500;2023-02-24T14:39:27;15.93;;;1.92;;
72684;SDS011;61365;52.162;4.500;2023-02-24T14:42:11;15.02;;;2.28;;
72684;SDS011;61365;52.162;4.500;2023-02-24T14:44:42;9.75;;;1.90;;
72684;SDS011;61365;52.162;4.500;2023-02-24T14:47:21;13.32;;;1.50;;
72684;SDS011;61365;52.162;4.500;2023-02-24T14:50:00;13.23;;;2.05;;
72684;SDS011;61365;52.162;4.500;2023-02-24T14:52:39;9.05;;;1.35;;
72684;SDS011;61365;52.162;4.500;2023-02-24T14:57:56;9.95;;;1.40;;
72684;SDS011;61365;52.162;4.500;2023-02-24T15:00:31;11.10;;;1.50;;
72684;SDS011;61365;52.162;4.500;2023-02-24T15:05:57;13.90;;;2.40;;
72684;SDS011;61365;52.162;4.500;2023-02-24T15:08:35;12.40;;;2.38;;
72684;SDS011;61365;52.162;4.500;2023-02-24T15:11:10;9.82;;;1.45;;
72684;SDS011;61365;52.162;4.500;2023-02-24T15:13:50;8.75;;;1.40;;
72684;SDS011;61365;52.162;4.500;2023-02-24T15:18:52;8.75;;;1.55;;
72684;SDS011;61365;52.162;4.500;2023-02-24T15:21:26;9.48;;;1.70;;
72684;SDS011;61365;52.162;4.500;2023-02-24T15:24:04;12.65;;;1.65;;
72684;SDS011;61365;52.162;4.500;2023-02-24T15:26:49;8.07;;;1.30;;
72684;SDS011;61365;52.162;4.500;2023-02-24T15:29:22;15.68;;;1.90;;
72684;SDS011;61365;52.162;4.500;2023-02-24T15:31:53;10.88;;;1.92;;
72684;SDS011;61365;52.162;4.500;2023-02-24T15:34:22;15.45;;;2.50;;
72684;SDS011;61365;52.162;4.500;2023-02-24T15:36:57;16.63;;;2.35;;
72684;SDS011;61365;52.162;4.500;2023-02-24T15:39:29;12.57;;;2.10;;
72684;SDS011;61365;52.162;4.500;2023-02-24T15:42:07;11.45;;;1.88;;
72684;SDS011;61365;52.162;4.500;2023-02-24T15:44:55;19.10;;;2.35;;
72684;SDS011;61365;52.162;4.500;2023-02-24T15:47:40;18.63;;;2.47;;
72684;SDS011;61365;52.162;4.500;2023-02-24T15:50:10;17.27;;;2.65;;
72684;SDS011;61365;52.162;4.500;2023-02-24T15:52:38;17.52;;;2.00;;
72684;SDS011;61365;52.162;4.500;2023-02-24T15:55:06;17.33;;;2.28;;
72684;SDS011;61365;52.162;4.500;2023-02-24T15:57:35;16.85;;;2.60;;
72684;SDS011;61365;52.162;4.500;2023-02-24T16:00:02;14.27;;;2.58;;
72684;SDS011;61365;52.162;4.500;2023-02-24T16:02:40;15.77;;;2.60;;
72684;SDS011;61365;52.162;4.500;2023-02-24T16:05:10;16.15;;;2.17;;
72684;SDS011;61365;52.162;4.500;2023-02-24T16:07:38;13.07;;;2.60;;
72684;SDS011;61365;52.162;4.500;2023-02-24T16:10:13;15.98;;;1.90;;
72684;SDS011;61365;52.162;4.500;2023-02-24T16:12:47;14.15;;;2.45;;
72684;SDS011;61365;52.162;4.500;2023-02-24T16:15:22;17.20;;;2.45;;
72684;SDS011;61365;52.162;4.500;2023-02-24T16:18:02;19.77;;;2.70;;
72684;SDS011;61365;52.162;4.500;2023-02-24T16:20:33;17.17;;;2.70;;
72684;SDS011;61365;52.162;4.500;2023-02-24T16:23:04;15.00;;;2.55;;
72684;SDS011;61365;52.162;4.500;2023-02-24T16:25:34;14.07;;;1.98;;
72684;SDS011;61365;52.162;4.500;2023-02-24T16:28:09;9.93;;;2.00;;
72684;SDS011;61365;52.162;4.500;2023-02-24T16:30:41;14.63;;;2.08;;
72684;SDS011;61365;52.162;4.500;2023-02-24T16:33:10;17.05;;;2.38;;
72684;SDS011;61365;52.162;4.500;2023-02-24T16:35:39;12.90;;;1.77;;
72684;SDS011;61365;52.162;4.500;2023-02-24T16:38:13;15.20;;;2.10;;
72684;SDS011;61365;52.162;4.500;2023-02-24T16:40:44;17.58;;;2.50;;
72684;SDS011;61365;52.162;4.500;2023-02-24T16:43:12;16.55;;;2.35;;
72684;SDS011;61365;52.162;4.500;2023-02-24T16:45:40;15.98;;;2.33;;
72684;SDS011;61365;52.162;4.500;2023-02-24T16:48:11;18.65;;;2.83;;
72684;SDS011;61365;52.162;4.500;2023-02-24T16:50:46;12.55;;;1.90;;
72684;SDS011;61365;52.162;4.500;2023-02-24T16:53:14;30.40;;;4.00;;
72684;SDS011;61365;52.162;4.500;2023-02-24T16:55:45;24.98;;;3.50;;
72684;SDS011;61365;52.162;4.500;2023-02-24T16:58:12;19.70;;;3.35;;
72684;SDS011;61365;52.162;4.500;2023-02-24T17:00:40;21.85;;;2.72;;
72684;SDS011;61365;52.162;4.500;2023-02-24T17:03:19;19.13;;;2.78;;
72684;SDS011;61365;52.162;4.500;2023-02-24T17:05:49;22.95;;;3.35;;
72684;SDS011;61365;52.162;4.500;2023-02-24T17:08:17;22.88;;;3.75;;
72684;SDS011;61365;52.162;4.500;2023-02-24T17:10:44;21.55;;;3.20;;
72684;SDS011;61365;52.162;4.500;2023-02-24T17:13:12;16.73;;;2.33;;
72684;SDS011;61365;52.162;4.500;2023-02-24T17:15:41;19.58;;;3.13;;
72684;SDS011;61365;52.162;4.500;2023-02-24T17:18:08;16.98;;;2.72;;
72684;SDS011;61365;52.162;4.500;2023-02-24T17:20:37;18.70;;;2.38;;
72684;SDS011;61365;52.162;4.500;2023-02-24T17:23:05;29.95;;;3.88;;
72684;SDS011;61365;52.162;4.500;2023-02-24T17:25:32;17.05;;;2.88;;
72684;SDS011;61365;52.162;4.500;2023-02-24T17:27:58;17.88;;;2.78;;
72684;SDS011;61365;52.162;4.500;2023-02-24T17:30:27;19.95;;;2.50;;